sensor_id;sensor_type;location;lat;lon;timestamp;pressure;altitude;pressure_sealevel;temperature;humidity
58239;BME280;44037;55.638;37.356;2023-01-25T00:01:45;100650.13;;;-0.41;91.93
58239;BME280;44037;55.638;37.356;2023-01-25T00:04:16;100654.91;;;-0.45;91.31
58239;BME280;44037;55.638;37.356;2023-01-25T00:06:43;100647.19;;;-0.47;91.45
58239;BME280;44037;55.638;37.356;2023-01-25T00:09:11;100648.03;;;-0.47;91.78
58239;BME280;44037;55.638;37.356;2023-01-25T00:11:39;100645.50;;;-0.47;92.13
58239;BME280;44037;55.638;37.356;2023-01-25T00:14:11;100646.50;;;-0.44;91.85
58239;BME280;44037;55.638;37.356;2023-01-25T00:16:39;100643.09;;;-0.45;91.67
58239;BME280;44037;55.638;37.356;2023-01-25T00:19:11;100638.94;;;-0.43;91.93
58239;BME280;44037;55.638;37.356;2023-01-25T00:22:11;100640.06;;;-0.39;91.83
58239;BME280;44037;55.638;37.356;2023-01-25T00:24:38;100631.66;;;-0.38;91.79
58239;BME280;44037;55.638;37.356;2023-01-25T00:27:14;100633.22;;;-0.40;91.96
58239;BME280;44037;55.638;37.356;2023-01-25T00:29:45;100633.53;;;-0.36;91.65
58239;BME280;44037;55.638;37.356;2023-01-25T00:32:28;100629.09;;;-0.38;91.40
58239;BME280;44037;55.638;37.356;2023-01-25T00:34:59;100634.28;;;-0.37;91.76
58239;BME280;44037;55.638;37.356;2023-01-25T00:37:34;100620.78;;;-0.36;91.61
58239;BME280;44037;55.638;37.356;2023-01-25T00:40:06;100610.47;;;-0.37;91.23
58239;BME280;44037;55.638;37.356;2023-01-25T00:42:33;100613.72;;;-0.40;91.22
58239;BME280;44037;55.638;37.356;2023-01-25T00:45:00;100611.06;;;-0.41;91.43
58239;BME280;44037;55.638;37.356;2023-01-25T00:47:30;100614.59;;;-0.39;91.10
58239;BME280;44037;55.638;37.356;2023-01-25T00:49:59;100616.16;;;-0.41;91.02
58239;BME280;44037;55.638;37.356;2023-01-25T00:52:26;100608.75;;;-0.38;91.18
58239;BME280;44037;55.638;37.356;2023-01-25T00:54:53;100603.81;;;-0.35;91.76
58239;BME280;44037;55.638;37.356;2023-01-25T00:57:21;100607.69;;;-0.28;91.58
58239;BME280;44037;55.638;37.356;2023-01-25T00:59:48;100603.88;;;-0.22;91.60
58239;BME280;44037;55.638;37.356;2023-01-25T01:02:16;100600.56;;;-0.21;91.09
58239;BME280;44037;55.638;37.356;2023-01-25T01:04:43;100598.13;;;-0.19;91.34
58239;BME280;44037;55.638;37.356;2023-01-25T01:07:13;100600.69;;;-0.19;91.01
58239;BME280;44037;55.638;37.356;2023-01-25T01:09:43;100602.56;;;-0.17;91.05
58239;BME280;44037;55.638;37.356;2023-01-25T01:12:14;100597.31;;;-0.18;91.27
58239;BME280;44037;55.638;37.356;2023-01-25T01:14:43;100594.13;;;-0.16;91.15
58239;BME280;44037;55.638;37.356;2023-01-25T01:17:10;100592.66;;;-0.12;91.19
58239;BME280;44037;55.638;37.356;2023-01-25T01:19:38;100600.53;;;-0.09;91.04
58239;BME280;44037;55.638;37.356;2023-01-25T01:22:05;100592.19;;;-0.06;90.97
58239;BME280;44037;55.638;37.356;2023-01-25T01:24:34;100592.19;;;-0.06;91.05
58239;BME280;44037;55.638;37.356;2023-01-25T01:27:01;100586.53;;;-0.02;91.31
58239;BME280;44037;55.638;37.356;2023-01-25T01:29:28;100588.38;;;0.01;91.30
58239;BME280;44037;55.638;37.356;2023-01-25T01:31:56;100574.78;;;0.00;91.33
58239;BME280;44037;55.638;37.356;2023-01-25T01:34:23;100568.09;;;0.02;91.09
58239;BME280;44037;55.638;37.356;2023-01-25T01:36:50;100569.09;;;0.04;91.34
58239;BME280;44037;55.638;37.356;2023-01-25T01:39:18;100562.44;;;0.06;90.83
58239;BME280;44037;55.638;37.356;2023-01-25T01:41:46;100548.13;;;0.08;90.76
58239;BME280;44037;55.638;37.356;2023-01-25T01:44:16;100555.00;;;0.09;91.10
58239;BME280;44037;55.638;37.356;2023-01-25T01:46:46;100555.00;;;0.09;90.68
58239;BME280;44037;55.638;37.356;2023-01-25T01:49:18;100558.53;;;0.11;91.05
58239;BME280;44037;55.638;37.356;2023-01-25T01:51:48;100560.31;;;0.12;90.80
58239;BME280;44037;55.638;37.356;2023-01-25T01:54:22;100557.75;;;0.12;90.77
58239;BME280;44037;55.638;37.356;2023-01-25T01:56:55;100553.44;;;0.11;90.45
58239;BME280;44037;55.638;37.356;2023-01-25T01:59:27;100542.34;;;0.11;90.50
58239;BME280;44037;55.638;37.356;2023-01-25T02:01:57;100541.47;;;0.10;90.48
58239;BME280;44037;55.638;37.356;2023-01-25T02:04:26;100552.66;;;0.12;90.55
58239;BME280;44037;55.638;37.356;2023-01-25T02:06:59;100547.66;;;0.14;90.71
58239;BME280;44037;55.638;37.356;2023-01-25T02:09:28;100544.41;;;0.17;90.76
58239;BME280;44037;55.638;37.356;2023-01-25T02:11:59;100546.94;;;0.17;90.64
58239;BME280;44037;55.638;37.356;2023-01-25T02:14:28;100544.41;;;0.17;90.65
58239;BME280;44037;55.638;37.356;2023-01-25T02:16:56;100543.41;;;0.14;90.69
58239;BME280;44037;55.638;37.356;2023-01-25T02:19:33;100549.13;;;0.10;90.12
58239;BME280;44037;55.638;37.356;2023-01-25T02:22:08;100539.50;;;0.06;90.11
58239;BME280;44037;55.638;37.356;2023-01-25T02:24:41;100549.69;;;0.06;90.17
58239;BME280;44037;55.638;37.356;2023-01-25T02:27:13;100554.56;;;0.03;89.89
58239;BME280;44037;55.638;37.356;2023-01-25T02:29:41;100544.00;;;-0.03;90.12
58239;BME280;44037;55.638;37.356;2023-01-25T02:32:09;100542.78;;;-0.08;89.68
58239;BME280;44037;55.638;37.356;2023-01-25T02:34:37;100542.69;;;-0.10;90.09
58239;BME280;44037;55.638;37.356;2023-01-25T02:37:04;100540.44;;;-0.05;90.31
58239;BME280;44037;55.638;37.356;2023-01-25T02:39:37;100548.19;;;-0.04;90.30
58239;BME280;44037;55.638;37.356;2023-01-25T02:42:04;100552.63;;;-0.01;90.37
58239;BME280;44037;55.638;37.356;2023-01-25T02:44:33;100545.75;;;-0.02;90.28
58239;BME280;44037;55.638;37.356;2023-01-25T02:47:01;100552.41;;;-0.04;90.35
58239;BME280;44037;55.638;37.356;2023-01-25T02:49:28;100544.34;;;-0.10;90.24
58239;BME280;44037;55.638;37.356;2023-01-25T02:51:55;100546.03;;;-0.11;89.97
58239;BME280;44037;55.638;37.356;2023-01-25T02:54:24;100553.88;;;-0.08;90.41
58239;BME280;44037;55.638;37.356;2023-01-25T02:56:52;100558.97;;;-0.08;90.49
58239;BME280;44037;55.638;37.356;2023-01-25T02:59:19;100555.31;;;-0.11;90.02
58239;BME280;44037;55.638;37.356;2023-01-25T03:01:48;100553.16;;;-0.19;89.82
58239;BME280;44037;55.638;37.356;2023-01-25T03:04:15;100551.28;;;-0.21;90.03
58239;BME280;44037;55.638;37.356;2023-01-25T03:06:43;100551.38;;;-0.20;89.96
58239;BME280;44037;55.638;37.356;2023-01-25T03:09:11;100557.16;;;-0.22;90.05
58239;BME280;44037;55.638;37.356;2023-01-25T03:11:38;100560.97;;;-0.29;89.61
58239;BME280;44037;55.638;37.356;2023-01-25T03:14:10;100560.75;;;-0.32;89.92
58239;BME280;44037;55.638;37.356;2023-01-25T03:16:43;100550.34;;;-0.35;89.89
58239;BME280;44037;55.638;37.356;2023-01-25T03:19:12;100548.50;;;-0.38;89.85
58239;BME280;44037;55.638;37.356;2023-01-25T03:21:40;100544.09;;;-0.40;89.70
58239;BME280;44037;55.638;37.356;2023-01-25T03:24:08;100528.50;;;-0.45;89.92
58239;BME280;44037;55.638;37.356;2023-01-25T03:26:52;100516.53;;;-0.46;90.10
58239;BME280;44037;55.638;37.356;2023-01-25T03:29:39;100506.53;;;-0.43;90.84
58239;BME280;44037;55.638;37.356;2023-01-25T03:32:10;100517.94;;;-0.38;90.85
58239;BME280;44037;55.638;37.356;2023-01-25T03:34:39;100508.81;;;-0.34;91.02
58239;BME280;44037;55.638;37.356;2023-01-25T03:37:07;100515.13;;;-0.29;91.47
58239;BME280;44037;55.638;37.356;2023-01-25T03:39:34;100527.47;;;-0.22;91.46
58239;BME280;44037;55.638;37.356;2023-01-25T03:42:01;100524.34;;;-0.18;91.53
58239;BME280;44037;55.638;37.356;2023-01-25T03:44:34;100515.81;;;-0.18;91.42
58239;BME280;44037;55.638;37.356;2023-01-25T03:47:02;100525.22;;;-0.17;91.48
58239;BME280;44037;55.638;37.356;2023-01-25T03:49:29;100524.34;;;-0.18;91.06
58239;BME280;44037;55.638;37.356;2023-01-25T03:52:01;100521.38;;;-0.24;90.35
58239;BME280;44037;55.638;37.356;2023-01-25T03:54:28;100522.63;;;-0.31;90.20
58239;BME280;44037;55.638;37.356;2023-01-25T03:56:55;100533.28;;;-0.36;89.93
58239;BME280;44037;55.638;37.356;2023-01-25T03:59:22;100531.03;;;-0.45;90.61
58239;BME280;44037;55.638;37.356;2023-01-25T04:01:50;100531.50;;;-0.51;90.16
58239;BME280;44037;55.638;37.356;2023-01-25T04:04:17;100534.72;;;-0.53;90.76
58239;BME280;44037;55.638;37.356;2023-01-25T04:06:47;100540.56;;;-0.54;90.75
58239;BME280;44037;55.638;37.356;2023-01-25T04:09:15;100536.47;;;-0.52;90.91
58239;BME280;44037;55.638;37.356;2023-01-25T04:11:42;100540.00;;;-0.50;91.42
58239;BME280;44037;55.638;37.356;2023-01-25T04:14:10;100542.47;;;-0.52;90.56
58239;BME280;44037;55.638;37.356;2023-01-25T04:16:37;100539.19;;;-0.63;89.71
58239;BME280;44037;55.638;37.356;2023-01-25T04:19:04;100539.22;;;-0.74;89.54
58239;BME280;44037;55.638;37.356;2023-01-25T04:21:32;100528.72;;;-0.79;89.72
58239;BME280;44037;55.638;37.356;2023-01-25T04:23:59;100531.25;;;-0.79;90.48
58239;BME280;44037;55.638;37.356;2023-01-25T04:26:28;100531.06;;;-0.82;89.75
58239;BME280;44037;55.638;37.356;2023-01-25T04:28:55;100527.31;;;-0.87;90.01
58239;BME280;44037;55.638;37.356;2023-01-25T04:31:25;100528.09;;;-0.88;90.46
58239;BME280;44037;55.638;37.356;2023-01-25T04:33:55;100525.63;;;-0.87;90.54
58239;BME280;44037;55.638;37.356;2023-01-25T04:36:22;100527.31;;;-0.87;90.53
58239;BME280;44037;55.638;37.356;2023-01-25T04:38:49;100536.59;;;-0.88;90.31
58239;BME280;44037;55.638;37.356;2023-01-25T04:41:18;100534.19;;;-0.86;90.60
58239;BME280;44037;55.638;37.356;2023-01-25T04:43:46;100531.72;;;-0.85;90.64
58239;BME280;44037;55.638;37.356;2023-01-25T04:46:17;100533.50;;;-0.84;90.38
58239;BME280;44037;55.638;37.356;2023-01-25T04:48:46;100536.81;;;-0.85;89.74
58239;BME280;44037;55.638;37.356;2023-01-25T04:51:14;100543.25;;;-0.90;89.64
58239;BME280;44037;55.638;37.356;2023-01-25T04:53:43;100537.72;;;-0.96;88.76
58239;BME280;44037;55.638;37.356;2023-01-25T04:56:10;100535.56;;;-1.03;88.93
58239;BME280;44037;55.638;37.356;2023-01-25T04:58:40;100534.44;;;-1.07;89.44
58239;BME280;44037;55.638;37.356;2023-01-25T05:01:09;100547.50;;;-1.02;89.56
58239;BME280;44037;55.638;37.356;2023-01-25T05:03:36;100543.19;;;-1.03;89.12
58239;BME280;44037;55.638;37.356;2023-01-25T05:06:03;100546.91;;;-0.98;89.66
58239;BME280;44037;55.638;37.356;2023-01-25T05:08:31;100543.50;;;-0.99;89.18
58239;BME280;44037;55.638;37.356;2023-01-25T05:10:58;100542.72;;;-0.98;88.66
58239;BME280;44037;55.638;37.356;2023-01-25T05:13:26;100541.50;;;-1.03;88.57
58239;BME280;44037;55.638;37.356;2023-01-25T05:15:55;100531.78;;;-1.09;87.96
58239;BME280;44037;55.638;37.356;2023-01-25T05:18:24;100545.50;;;-1.06;88.65
58239;BME280;44037;55.638;37.356;2023-01-25T05:20:53;100542.97;;;-1.06;88.26
58239;BME280;44037;55.638;37.356;2023-01-25T05:23:23;100541.97;;;-1.09;88.76
58239;BME280;44037;55.638;37.356;2023-01-25T05:25:54;100544.59;;;-1.07;88.81
58239;BME280;44037;55.638;37.356;2023-01-25T05:28:39;100544.81;;;-1.04;88.84
58239;BME280;44037;55.638;37.356;2023-01-25T05:31:06;100548.72;;;-1.09;88.16
58239;BME280;44037;55.638;37.356;2023-01-25T05:33:36;100555.44;;;-1.10;88.32
58239;BME280;44037;55.638;37.356;2023-01-25T05:36:03;100563.84;;;-1.11;87.67
58239;BME280;44037;55.638;37.356;2023-01-25T05:38:36;100555.03;;;-1.16;87.67
58239;BME280;44037;55.638;37.356;2023-01-25T05:41:03;100554.03;;;-1.18;87.87
58239;BME280;44037;55.638;37.356;2023-01-25T05:43:30;100555.69;;;-1.18;87.76
58239;BME280;44037;55.638;37.356;2023-01-25T05:45:58;100554.03;;;-1.18;87.85
58239;BME280;44037;55.638;37.356;2023-01-25T05:48:29;100540.09;;;-1.23;87.69
58239;BME280;44037;55.638;37.356;2023-01-25T05:50:58;100543.63;;;-1.21;87.83
58239;BME280;44037;55.638;37.356;2023-01-25T05:53:27;100534.47;;;-1.19;88.09
58239;BME280;44037;55.638;37.356;2023-01-25T05:55:56;100532.16;;;-1.16;88.05
58239;BME280;44037;55.638;37.356;2023-01-25T05:58:29;100533.16;;;-1.14;88.08
58239;BME280;44037;55.638;37.356;2023-01-25T06:00:58;100535.00;;;-1.11;87.79
58239;BME280;44037;55.638;37.356;2023-01-25T06:03:29;100533.34;;;-1.11;88.07
58239;BME280;44037;55.638;37.356;2023-01-25T06:06:05;100536.88;;;-1.09;88.18
58239;BME280;44037;55.638;37.356;2023-01-25T06:08:36;100537.50;;;-0.99;88.74
58239;BME280;44037;55.638;37.356;2023-01-25T06:11:10;100545.03;;;-0.89;88.95
58239;BME280;44037;55.638;37.356;2023-01-25T06:13:38;100531.25;;;-0.79;89.02
58239;BME280;44037;55.638;37.356;2023-01-25T06:16:08;100535.44;;;-0.68;89.11
58239;BME280;44037;55.638;37.356;2023-01-25T06:18:39;100546.13;;;-0.60;88.56
58239;BME280;44037;55.638;37.356;2023-01-25T06:21:08;100541.56;;;-0.52;88.72
58239;BME280;44037;55.638;37.356;2023-01-25T06:23:35;100547.19;;;-0.44;88.87
58239;BME280;44037;55.638;37.356;2023-01-25T06:29:28;100535.28;;;-0.32;88.47
58239;BME280;44037;55.638;37.356;2023-01-25T06:31:55;100532.16;;;-0.28;88.67
58239;BME280;44037;55.638;37.356;2023-01-25T06:34:22;100534.13;;;-0.24;88.33
58239;BME280;44037;55.638;37.356;2023-01-25T06:36:51;100532.00;;;-0.18;88.07
58239;BME280;44037;55.638;37.356;2023-01-25T06:39:18;100538.09;;;-0.16;87.88
58239;BME280;44037;55.638;37.356;2023-01-25T06:41:46;100535.63;;;-0.14;87.90
58239;BME280;44037;55.638;37.356;2023-01-25T06:44:13;100537.59;;;-0.10;87.55
58239;BME280;44037;55.638;37.356;2023-01-25T06:46:40;100543.00;;;-0.05;87.58
58239;BME280;44037;55.638;37.356;2023-01-25T06:49:08;100542.44;;;-0.01;87.27
58239;BME280;44037;55.638;37.356;2023-01-25T06:51:35;100546.63;;;-0.02;86.91
58239;BME280;44037;55.638;37.356;2023-01-25T06:54:04;100548.31;;;-0.02;86.84
58239;BME280;44037;55.638;37.356;2023-01-25T06:56:31;100545.63;;;-0.04;86.26
58239;BME280;44037;55.638;37.356;2023-01-25T06:58:58;100546.25;;;-0.08;86.14
58239;BME280;44037;55.638;37.356;2023-01-25T07:01:25;100542.00;;;-0.07;86.06
58239;BME280;44037;55.638;37.356;2023-01-25T07:03:56;100538.59;;;-0.08;86.32
58239;BME280;44037;55.638;37.356;2023-01-25T07:06:24;100536.03;;;-0.08;85.58
58239;BME280;44037;55.638;37.356;2023-01-25T07:08:52;100536.69;;;-0.10;85.31
58239;BME280;44037;55.638;37.356;2023-01-25T07:11:20;100540.03;;;-0.11;85.39
58239;BME280;44037;55.638;37.356;2023-01-25T07:13:47;100546.13;;;-0.09;86.06
58239;BME280;44037;55.638;37.356;2023-01-25T07:16:17;100537.81;;;-0.07;85.46
58239;BME280;44037;55.638;37.356;2023-01-25T07:18:45;100536.91;;;-0.07;85.44
58239;BME280;44037;55.638;37.356;2023-01-25T07:21:13;100540.44;;;-0.05;85.39
58239;BME280;44037;55.638;37.356;2023-01-25T07:23:41;100531.25;;;-0.03;84.77
58239;BME280;44037;55.638;37.356;2023-01-25T07:26:14;100532.81;;;-0.05;84.96
58239;BME280;44037;55.638;37.356;2023-01-25T07:28:44;100526.44;;;0.02;85.05
58239;BME280;44037;55.638;37.356;2023-01-25T07:31:11;100523.50;;;0.09;85.43
58239;BME280;44037;55.638;37.356;2023-01-25T07:33:39;100527.47;;;0.17;85.33
58239;BME280;44037;55.638;37.356;2023-01-25T07:36:08;100519.50;;;0.26;85.41
58239;BME280;44037;55.638;37.356;2023-01-25T07:38:35;100516.66;;;0.35;85.04
58239;BME280;44037;55.638;37.356;2023-01-25T07:41:03;100519.50;;;0.39;84.87
58239;BME280;44037;55.638;37.356;2023-01-25T07:43:31;100524.13;;;0.45;85.22
58239;BME280;44037;55.638;37.356;2023-01-25T07:46:03;100530.50;;;0.52;84.78
58239;BME280;44037;55.638;37.356;2023-01-25T07:48:31;100520.63;;;0.56;85.06
58239;BME280;44037;55.638;37.356;2023-01-25T07:50:59;100516.59;;;0.60;84.65
58239;BME280;44037;55.638;37.356;2023-01-25T07:53:42;100516.94;;;0.66;84.94
58239;BME280;44037;55.638;37.356;2023-01-25T07:56:10;100510.47;;;0.71;84.54
58239;BME280;44037;55.638;37.356;2023-01-25T07:58:37;100511.63;;;0.76;84.13
58239;BME280;44037;55.638;37.356;2023-01-25T08:01:07;100510.06;;;0.79;83.74
58239;BME280;44037;55.638;37.356;2023-01-25T08:03:35;100518.69;;;0.81;83.43
58239;BME280;44037;55.638;37.356;2023-01-25T08:06:02;100523.22;;;0.85;83.23
58239;BME280;44037;55.638;37.356;2023-01-25T08:08:31;100509.97;;;0.90;83.25
58239;BME280;44037;55.638;37.356;2023-01-25T08:10:59;100506.19;;;0.99;83.11
58239;BME280;44037;55.638;37.356;2023-01-25T08:13:27;100510.22;;;1.09;82.92
58239;BME280;44037;55.638;37.356;2023-01-25T08:15:54;100515.88;;;1.18;82.63
58239;BME280;44037;55.638;37.356;2023-01-25T08:18:23;100519.75;;;1.26;82.41
58239;BME280;44037;55.638;37.356;2023-01-25T08:20:50;100516.00;;;1.34;82.65
58239;BME280;44037;55.638;37.356;2023-01-25T08:23:17;100509.69;;;1.43;81.84
58239;BME280;44037;55.638;37.356;2023-01-25T08:25:45;100509.09;;;1.47;81.86
58239;BME280;44037;55.638;37.356;2023-01-25T08:28:14;100510.84;;;1.48;81.53
58239;BME280;44037;55.638;37.356;2023-01-25T08:30:41;100506.72;;;1.50;81.76
58239;BME280;44037;55.638;37.356;2023-01-25T08:33:08;100504.16;;;1.50;79.91
58239;BME280;44037;55.638;37.356;2023-01-25T08:35:36;100509.94;;;1.32;79.17
58239;BME280;44037;55.638;37.356;2023-01-25T08:38:04;100509.78;;;1.16;78.66
58239;BME280;44037;55.638;37.356;2023-01-25T08:40:33;100506.47;;;1.03;79.29
58239;BME280;44037;55.638;37.356;2023-01-25T08:43:00;100509.81;;;1.02;79.57
58239;BME280;44037;55.638;37.356;2023-01-25T08:45:28;100495.13;;;0.98;79.36
58239;BME280;44037;55.638;37.356;2023-01-25T08:47:59;100487.78;;;0.89;78.72
58239;BME280;44037;55.638;37.356;2023-01-25T08:50:26;100488.16;;;0.82;79.15
58239;BME280;44037;55.638;37.356;2023-01-25T08:53:21;100488.16;;;0.82;79.35
58239;BME280;44037;55.638;37.356;2023-01-25T08:55:50;100481.63;;;0.86;79.69
58239;BME280;44037;55.638;37.356;2023-01-25T08:58:23;100463.13;;;0.90;79.49
58239;BME280;44037;55.638;37.356;2023-01-25T09:00:50;100464.09;;;0.92;79.01
58239;BME280;44037;55.638;37.356;2023-01-25T09:03:18;100465.78;;;0.91;79.97
58239;BME280;44037;55.638;37.356;2023-01-25T09:05:47;100470.19;;;0.94;79.86
58239;BME280;44037;55.638;37.356;2023-01-25T09:08:14;100469.59;;;0.98;79.63
58239;BME280;44037;55.638;37.356;2023-01-25T09:10:42;100468.03;;;1.00;79.67
58239;BME280;44037;55.638;37.356;2023-01-25T09:13:10;100464.66;;;1.01;79.71
58239;BME280;44037;55.638;37.356;2023-01-25T09:15:37;100463.88;;;1.02;79.47
58239;BME280;44037;55.638;37.356;2023-01-25T09:18:04;100467.22;;;1.01;79.17
58239;BME280;44037;55.638;37.356;2023-01-25T09:20:32;100456.06;;;0.99;79.47
58239;BME280;44037;55.638;37.356;2023-01-25T09:22:59;100450.06;;;0.99;79.16
58239;BME280;44037;55.638;37.356;2023-01-25T09:25:26;100449.97;;;0.97;79.19
58239;BME280;44037;55.638;37.356;2023-01-25T09:27:56;100452.53;;;0.97;79.22
58239;BME280;44037;55.638;37.356;2023-01-25T09:30:23;100446.44;;;0.95;78.77
58239;BME280;44037;55.638;37.356;2023-01-25T09:32:50;100444.59;;;0.93;78.77
58239;BME280;44037;55.638;37.356;2023-01-25T09:35:17;100435.84;;;0.89;78.77
58239;BME280;44037;55.638;37.356;2023-01-25T09:38:06;100426.53;;;0.89;79.05
58239;BME280;44037;55.638;37.356;2023-01-25T09:40:38;100424.84;;;0.90;78.93
58239;BME280;44037;55.638;37.356;2023-01-25T09:43:20;100424.06;;;0.91;79.02
58239;BME280;44037;55.638;37.356;2023-01-25T09:46:11;100409.81;;;0.95;79.12
58239;BME280;44037;55.638;37.356;2023-01-25T09:48:54;100406.84;;;1.02;78.94
58239;BME280;44037;55.638;37.356;2023-01-25T09:51:44;100401.31;;;1.09;79.17
58239;BME280;44037;55.638;37.356;2023-01-25T09:54:21;100394.81;;;1.14;79.24
58239;BME280;44037;55.638;37.356;2023-01-25T09:57:09;100393.31;;;1.18;78.98
58239;BME280;44037;55.638;37.356;2023-01-25T09:59:43;100387.44;;;1.19;78.75
58239;BME280;44037;55.638;37.356;2023-01-25T10:02:25;100386.66;;;1.20;78.81
58239;BME280;44037;55.638;37.356;2023-01-25T10:05:01;100386.84;;;1.23;78.51
58239;BME280;44037;55.638;37.356;2023-01-25T10:07:46;100390.25;;;1.23;77.73
58239;BME280;44037;55.638;37.356;2023-01-25T10:10:17;100377.41;;;1.22;77.65
58239;BME280;44037;55.638;37.356;2023-01-25T10:12:47;100372.31;;;1.22;77.56
58239;BME280;44037;55.638;37.356;2023-01-25T10:15:21;100364.84;;;1.25;77.28
58239;BME280;44037;55.638;37.356;2023-01-25T10:17:54;100362.09;;;1.22;76.71
58239;BME280;44037;55.638;37.356;2023-01-25T10:20:29;100366.22;;;1.20;76.85
58239;BME280;44037;55.638;37.356;2023-01-25T10:23:14;100367.47;;;1.27;76.66
58239;BME280;44037;55.638;37.356;2023-01-25T10:25:52;100372.81;;;1.31;76.17
58239;BME280;44037;55.638;37.356;2023-01-25T10:28:29;100365.16;;;1.31;75.49
58239;BME280;44037;55.638;37.356;2023-01-25T10:31:03;100362.53;;;1.30;75.14
58239;BME280;44037;55.638;37.356;2023-01-25T10:33:34;100364.19;;;1.29;75.24
58239;BME280;44037;55.638;37.356;2023-01-25T10:36:05;100359.72;;;1.25;75.07
58239;BME280;44037;55.638;37.356;2023-01-25T10:38:35;100371.59;;;1.25;75.13
58239;BME280;44037;55.638;37.356;2023-01-25T10:41:11;100362.97;;;1.22;75.10
58239;BME280;44037;55.638;37.356;2023-01-25T10:43:40;100360.59;;;1.26;75.22
58239;BME280;44037;55.638;37.356;2023-01-25T10:46:21;100363.41;;;1.30;75.12
58239;BME280;44037;55.638;37.356;2023-01-25T10:48:50;100363.59;;;1.33;74.46
58239;BME280;44037;55.638;37.356;2023-01-25T10:51:30;100356.25;;;1.40;74.07
58239;BME280;44037;55.638;37.356;2023-01-25T10:53:58;100354.69;;;1.42;73.88
58239;BME280;44037;55.638;37.356;2023-01-25T10:56:27;100346.06;;;1.40;73.79
58239;BME280;44037;55.638;37.356;2023-01-25T10:59:06;100345.13;;;1.37;73.57
58239;BME280;44037;55.638;37.356;2023-01-25T11:01:35;100341.41;;;1.32;73.37
58239;BME280;44037;55.638;37.356;2023-01-25T11:04:22;100336.22;;;1.31;73.37
58239;BME280;44037;55.638;37.356;2023-01-25T11:06:49;100326.94;;;1.33;72.98
58239;BME280;44037;55.638;37.356;2023-01-25T11:09:32;100315.78;;;1.31;72.18
58239;BME280;44037;55.638;37.356;2023-01-25T11:12:00;100320.44;;;1.23;71.68
58239;BME280;44037;55.638;37.356;2023-01-25T11:14:29;100323.00;;;1.23;72.13
58239;BME280;44037;55.638;37.356;2023-01-25T11:16:59;100321.69;;;1.30;72.26
58239;BME280;44037;55.638;37.356;2023-01-25T11:19:31;100325.38;;;1.35;71.64
58239;BME280;44037;55.638;37.356;2023-01-25T11:22:00;100319.22;;;1.31;71.46
58239;BME280;44037;55.638;37.356;2023-01-25T11:24:29;100317.44;;;1.30;71.40
58239;BME280;44037;55.638;37.356;2023-01-25T11:27:17;100314.19;;;1.33;71.58
58239;BME280;44037;55.638;37.356;2023-01-25T11:29:44;100312.84;;;1.40;71.81
58239;BME280;44037;55.638;37.356;2023-01-25T11:32:18;100309.69;;;1.44;71.53
58239;BME280;44037;55.638;37.356;2023-01-25T11:34:50;100303.78;;;1.45;71.10
58239;BME280;44037;55.638;37.356;2023-01-25T11:37:28;100308.03;;;1.44;71.35
58239;BME280;44037;55.638;37.356;2023-01-25T11:40:06;100299.47;;;1.44;71.26
58239;BME280;44037;55.638;37.356;2023-01-25T11:42:44;100288.53;;;1.46;71.17
58239;BME280;44037;55.638;37.356;2023-01-25T11:45:36;100292.97;;;1.49;71.33
58239;BME280;44037;55.638;37.356;2023-01-25T11:48:25;100277.63;;;1.49;71.18
58239;BME280;44037;55.638;37.356;2023-01-25T11:51:01;100276.56;;;1.45;70.38
58239;BME280;44037;55.638;37.356;2023-01-25T11:53:48;100279.75;;;1.41;69.96
58239;BME280;44037;55.638;37.356;2023-01-25T11:56:21;100282.22;;;1.40;70.39
58239;BME280;44037;55.638;37.356;2023-01-25T11:59:08;100280.97;;;1.33;70.12
58239;BME280;44037;55.638;37.356;2023-01-25T12:01:55;100279.50;;;1.21;70.28
58239;BME280;44037;55.638;37.356;2023-01-25T12:04:46;100283.56;;;1.18;70.68
58239;BME280;44037;55.638;37.356;2023-01-25T12:07:23;100278.72;;;1.22;70.35
58239;BME280;44037;55.638;37.356;2023-01-25T12:10:11;100280.72;;;1.28;70.46
58239;BME280;44037;55.638;37.356;2023-01-25T12:12:53;100276.59;;;1.30;70.58
58239;BME280;44037;55.638;37.356;2023-01-25T12:15:26;100281.88;;;1.33;71.20
58239;BME280;44037;55.638;37.356;2023-01-25T12:21:08;100276.88;;;1.20;70.68
58239;BME280;44037;55.638;37.356;2023-01-25T12:23:49;100276.69;;;1.17;70.78
58239;BME280;44037;55.638;37.356;2023-01-25T12:26:26;100268.06;;;1.15;70.57
58239;BME280;44037;55.638;37.356;2023-01-25T12:29:02;100267.97;;;1.13;70.68
58239;BME280;44037;55.638;37.356;2023-01-25T12:31:38;100270.28;;;1.09;70.94
58239;BME280;44037;55.638;37.356;2023-01-25T12:34:12;100271.84;;;1.06;71.24
58239;BME280;44037;55.638;37.356;2023-01-25T12:36:46;100270.09;;;1.05;71.47
58239;BME280;44037;55.638;37.356;2023-01-25T12:39:19;100263.34;;;1.06;71.26
58239;BME280;44037;55.638;37.356;2023-01-25T12:41:52;100266.75;;;1.06;71.63
58239;BME280;44037;55.638;37.356;2023-01-25T12:44:24;100256.53;;;1.06;71.61
58239;BME280;44037;55.638;37.356;2023-01-25T12:46:58;100260.78;;;1.06;71.36
58239;BME280;44037;55.638;37.356;2023-01-25T12:49:32;100257.25;;;1.04;71.21
58239;BME280;44037;55.638;37.356;2023-01-25T12:52:05;100255.31;;;1.00;71.32
58239;BME280;44037;55.638;37.356;2023-01-25T12:54:38;100248.19;;;0.94;71.53
58239;BME280;44037;55.638;37.356;2023-01-25T12:57:14;100248.19;;;0.94;71.61
58239;BME280;44037;55.638;37.356;2023-01-25T12:59:49;100242.03;;;0.90;71.54
58239;BME280;44037;55.638;37.356;2023-01-25T13:02:46;100235.94;;;0.88;72.21
58239;BME280;44037;55.638;37.356;2023-01-25T13:05:25;100235.88;;;0.87;72.02
58239;BME280;44037;55.638;37.356;2023-01-25T13:08:02;100240.00;;;0.85;72.23
58239;BME280;44037;55.638;37.356;2023-01-25T13:10:34;100241.59;;;0.83;72.27
58239;BME280;44037;55.638;37.356;2023-01-25T13:13:20;100233.56;;;0.76;72.37